Time;durP1;ratioP1;P1;durP2;ratioP2;P2;SDS_P1;SDS_P2;PMS_P1;PMS_P2;Temp;Humidity;BMP_temperature;BMP_pressure;BME280_temperature;BME280_humidity;BME280_pressure;Samples;Min_cycle;Max_cycle;Signal;HPM_P1;HPM_P2
2024/03/20 00:00:19;;;;;;;;;;;;;;;10.02;79.11;101313.63;5001929;28;20428;-84
2024/03/20 00:02:48;;;;;;;;;;;;;;;9.96;79.14;101308.81;4996321;28;20359;-83
2024/03/20 00:05:16;;;;;;;;;;;;;;;10.00;78.87;101307.63;4993570;28;19922;-82
2024/03/20 00:07:51;;;;;;;;;;;;;;;10.03;78.16;101306.53;4986312;28;19928;-83
2024/03/20 00:10:17;;;;;;;;;;;;;;;10.00;78.46;101310.28;4990757;28;20298;-82
2024/03/20 00:12:44;;;;;;;;;;;;;;;10.00;77.97;101302.34;4987823;28;19922;-83
2024/03/20 00:15:14;;;;;;;;;;;;;;;10.00;78.28;101305.00;5007015;28;19921;-80
2024/03/20 00:17:46;;;;;;;;;;;;;;;9.94;78.37;101301.94;4985666;28;19933;-82
2024/03/20 00:20:12;;;;;;;;;;;;;;;9.93;78.64;101305.53;4992251;28;19922;-82
2024/03/20 00:22:40;;;;;;;;;;;;;;;9.88;78.80;101305.88;4996149;28;19922;-84
2024/03/20 00:25:09;;;;;;;;;;;;;;;9.82;79.01;101298.38;4981427;28;19922;-84
2024/03/20 00:27:38;;;;;;;;;;;;;;;9.75;79.87;101299.81;4995542;28;19922;-83
2024/03/20 00:30:06;;;;;;;;;;;;;;;9.75;79.78;101291.88;5000399;28;19922;-82
2024/03/20 00:32:32;;;;;;;;;;;;;;;9.73;79.44;101293.78;4984365;28;19922;-82
2024/03/20 00:34:59;;;;;;;;;;;;;;;9.74;79.59;101295.50;5000809;28;20123;-82
2024/03/20 00:37:25;;;;;;;;;;;;;;;9.61;80.41;101300.81;4994193;28;19922;-83
2024/03/20 00:39:53;;;;;;;;;;;;;;;9.57;81.12;101296.72;4999664;28;19986;-83
2024/03/20 00:42:20;;;;;;;;;;;;;;;9.50;81.43;101293.66;5006649;28;19922;-83
2024/03/20 00:44:46;;;;;;;;;;;;;;;9.46;81.77;101291.34;5000568;28;19922;-83
2024/03/20 00:47:13;;;;;;;;;;;;;;;9.43;82.00;101289.78;4992466;28;19953;-84
2024/03/20 00:49:41;;;;;;;;;;;;;;;9.47;81.48;101287.78;4995182;28;19953;-83
2024/03/20 00:52:08;;;;;;;;;;;;;;;9.47;81.35;101285.97;4990691;28;19922;-83
2024/03/20 00:54:38;;;;;;;;;;;;;;;9.46;81.38;101284.25;5001054;28;19960;-84
2024/03/20 00:57:10;;;;;;;;;;;;;;;9.43;81.22;101281.84;4991163;28;19992;-84
2024/03/20 00:59:44;;;;;;;;;;;;;;;9.43;81.50;101281.03;4993893;28;19922;-83
2024/03/20 01:02:23;;;;;;;;;;;;;;;9.44;81.21;101280.06;4991740;28;19944;-85
2024/03/20 01:04:57;;;;;;;;;;;;;;;9.42;81.34;101279.31;4985818;28;19922;-86
2024/03/20 01:07:31;;;;;;;;;;;;;;;9.34;82.23;101287.81;4982159;28;20016;-84
2024/03/20 01:44:54;;;;;;;;;;;;;;;8.96;84.60;101272.88;5710128;23;11064494;-81
2024/03/20 01:47:21;;;;;;;;;;;;;;;8.93;84.77;101277.50;6198065;23;19920;-84
2024/03/20 01:49:50;;;;;;;;;;;;;;;8.94;84.45;101281.88;6195558;23;20005;-82
2024/03/20 01:52:16;;;;;;;;;;;;;;;8.97;83.87;101274.53;6196329;22;19931;-84
2024/03/20 01:54:43;;;;;;;;;;;;;;;8.87;85.07;101278.78;6198182;22;19912;-84
2024/03/20 01:57:09;;;;;;;;;;;;;;;8.79;85.51;101275.84;6175938;22;19920;-79
2024/03/20 01:59:36;;;;;;;;;;;;;;;8.83;85.16;101279.97;6165911;23;19921;-79
2024/03/20 02:02:04;;;;;;;;;;;;;;;8.78;85.04;101282.91;6164251;23;19932;-80
2024/03/20 02:04:31;;;;;;;;;;;;;;;8.69;84.86;101278.28;6164385;23;19970;-80
2024/03/20 02:06:59;;;;;;;;;;;;;;;8.64;85.06;101284.84;6250150;22;19919;-81
2024/03/20 02:09:26;;;;;;;;;;;;;;;8.66;85.28;101277.63;6319525;22;19919;-81
2024/03/20 02:11:59;;;;;;;;;;;;;;;8.66;85.18;101277.63;6319149;22;19923;-81
2024/03/20 02:14:26;;;;;;;;;;;;;;;8.57;86.13;101276.47;6319168;22;19923;-81
2024/03/20 02:16:52;;;;;;;;;;;;;;;8.43;86.46;101279.22;6319407;22;19946;-81
2024/03/20 02:19:20;;;;;;;;;;;;;;;8.48;86.79;101283.25;6323119;22;20303;-79
2024/03/20 02:21:48;;;;;;;;;;;;;;;8.51;86.48;101283.03;6336066;22;19925;-79
2024/03/20 02:24:20;;;;;;;;;;;;;;;8.52;86.41;101276.78;6333208;22;19919;-79
2024/03/20 02:26:48;;;;;;;;;;;;;;;8.45;86.32;101286.09;6332729;22;19918;-80
2024/03/20 02:29:14;;;;;;;;;;;;;;;8.46;86.27;101274.59;6334000;22;19984;-79
2024/03/20 02:31:41;;;;;;;;;;;;;;;8.49;86.37;101279.66;6327314;22;19923;-80
2024/03/20 02:34:07;;;;;;;;;;;;;;;8.51;86.43;101279.53;6321063;22;19941;-79
2024/03/20 02:36:34;;;;;;;;;;;;;;;8.43;86.53;101277.41;6318368;22;19919;-80
2024/03/20 02:39:02;;;;;;;;;;;;;;;8.41;86.84;101276.69;6313962;22;19941;-82
2024/03/20 02:41:33;;;;;;;;;;;;;;;8.39;87.11;101278.56;6314302;22;19919;-81
2024/03/20 02:43:59;;;;;;;;;;;;;;;8.42;86.81;101282.81;6313029;22;20420;-81
2024/03/20 02:46:25;;;;;;;;;;;;;;;8.44;86.59;101278.25;6313709;22;19954;-80
2024/03/20 02:48:57;;;;;;;;;;;;;;;8.40;86.59;101277.66;6313075;22;19922;-80
2024/03/20 02:51:24;;;;;;;;;;;;;;;8.35;86.76;101274.47;6314483;22;19925;-80
2024/03/20 02:53:51;;;;;;;;;;;;;;;8.41;87.04;101274.06;6313203;22;19918;-80
2024/03/20 02:56:19;;;;;;;;;;;;;;;8.42;87.25;101278.38;6313994;22;19946;-80
2024/03/20 02:58:48;;;;;;;;;;;;;;;8.39;87.51;101283.00;6313447;22;19919;-80
2024/03/20 03:01:17;;;;;;;;;;;;;;;8.28;88.45;101276.66;6314982;22;19923;-80
2024/03/20 03:03:45;;;;;;;;;;;;;;;8.31;87.75;101278.25;6316747;22;19933;-80
2024/03/20 03:06:11;;;;;;;;;;;;;;;8.34;87.55;101281.50;6314993;22;20335;-80
2024/03/20 03:08:39;;;;;;;;;;;;;;;8.28;88.34;101281.06;6313026;22;19926;-82
2024/03/20 03:11:06;;;;;;;;;;;;;;;8.23;88.95;101283.19;6314791;22;19958;-82
2024/03/20 03:13:34;;;;;;;;;;;;;;;8.18;88.87;101280.84;6316024;22;19923;-80
2024/03/20 03:16:04;;;;;;;;;;;;;;;8.15;89.11;101285.47;6314962;22;19919;-81
2024/03/20 03:18:31;;;;;;;;;;;;;;;8.28;88.04;101283.72;6314698;22;19942;-80
2024/03/20 03:21:00;;;;;;;;;;;;;;;8.28;87.67;101281.06;6314696;22;19919;-81
2024/03/20 03:23:26;;;;;;;;;;;;;;;8.25;88.31;101283.91;6313088;22;19922;-81
2024/03/20 03:25:52;;;;;;;;;;;;;;;8.28;87.87;101284.56;6312865;22;19980;-80
2024/03/20 03:28:19;;;;;;;;;;;;;;;8.25;87.87;101281.28;6313210;22;19926;-81
2024/03/20 03:30:47;;;;;;;;;;;;;;;8.26;88.22;101283.81;6313297;22;20339;-81
2024/03/20 03:33:13;;;;;;;;;;;;;;;8.18;88.41;101282.66;6311462;22;19929;-82
2024/03/20 03:35:39;;;;;;;;;;;;;;;8.02;89.10;101280.19;6311398;22;20273;-82
2024/03/20 03:38:08;;;;;;;;;;;;;;;8.00;89.04;101282.94;6312602;22;19957;-80
2024/03/20 03:40:34;;;;;;;;;;;;;;;8.02;89.20;101285.44;6314648;22;20351;-80
2024/03/20 03:43:01;;;;;;;;;;;;;;;8.03;89.13;101281.84;6313102;22;19942;-80
2024/03/20 03:45:27;;;;;;;;;;;;;;;8.01;89.02;101281.97;6312124;22;19961;-82
2024/03/20 03:47:55;;;;;;;;;;;;;;;8.01;88.97;101284.59;6311460;22;19961;-81
2024/03/20 03:50:21;;;;;;;;;;;;;;;8.00;89.46;101275.03;6313172;22;19919;-81
2024/03/20 03:52:50;;;;;;;;;;;;;;;7.94;89.59;101283.31;6313483;22;19923;-80
2024/03/20 03:55:17;;;;;;;;;;;;;;;7.96;89.56;101288.50;6313249;22;19998;-81
2024/03/20 03:57:48;;;;;;;;;;;;;;;7.90;90.16;101299.44;6312239;22;19923;-81
2024/03/20 04:00:15;;;;;;;;;;;;;;;7.86;90.28;101296.16;6312935;22;19919;-80
2024/03/20 04:02:42;;;;;;;;;;;;;;;7.92;89.94;101294.91;6313041;22;20248;-84
2024/03/20 04:05:09;;;;;;;;;;;;;;;7.90;90.38;101287.09;6314001;22;19957;-82
2024/03/20 04:07:36;;;;;;;;;;;;;;;7.92;90.26;101290.50;6312884;22;19942;-80
2024/03/20 04:10:02;;;;;;;;;;;;;;;7.85;89.98;101282.13;6312610;22;19969;-81
2024/03/20 04:12:29;;;;;;;;;;;;;;;7.90;90.61;101276.53;6312955;22;20344;-80
2024/03/20 04:14:55;;;;;;;;;;;;;;;7.80;90.25;101291.28;6311990;22;19954;-80
2024/03/20 04:17:21;;;;;;;;;;;;;;;7.81;90.36;101282.44;6312366;22;20375;-81
2024/03/20 04:19:48;;;;;;;;;;;;;;;7.82;90.29;101279.72;6312540;22;19946;-79
2024/03/20 04:22:15;;;;;;;;;;;;;;;7.82;90.44;101289.41;6312067;22;19950;-79
2024/03/20 04:24:42;;;;;;;;;;;;;;;7.81;90.91;101285.06;6312231;22;19950;-80
2024/03/20 04:27:08;;;;;;;;;;;;;;;7.88;90.78;101280.25;6308085;22;19919;-78
2024/03/20 04:29:35;;;;;;;;;;;;;;;7.83;91.14;101286.66;6309037;22;20056;-78
2024/03/20 04:32:02;;;;;;;;;;;;;;;7.83;90.87;101280.56;6309464;22;19998;-79
2024/03/20 04:34:28;;;;;;;;;;;;;;;7.75;90.89;101277.56;6307946;22;19945;-79
2024/03/20 04:36:54;;;;;;;;;;;;;;;7.81;90.68;101277.16;6311022;22;19994;-81
2024/03/20 04:39:29;;;;;;;;;;;;;;;7.77;91.31;101281.81;6311207;22;19942;-81
2024/03/20 04:41:55;;;;;;;;;;;;;;;7.74;91.08;101276.72;6311740;22;20336;-80
2024/03/20 04:44:22;;;;;;;;;;;;;;;7.73;91.44;101279.47;6311255;22;19950;-81
2024/03/20 04:46:48;;;;;;;;;;;;;;;7.68;91.35;101276.25;6311385;22;19919;-81
2024/03/20 04:49:14;;;;;;;;;;;;;;;7.67;91.48;101290.38;6311926;22;19926;-81
2024/03/20 04:51:41;;;;;;;;;;;;;;;7.64;91.66;101282.69;6311922;22;19919;-82
2024/03/20 04:54:08;;;;;;;;;;;;;;;7.66;92.05;101288.69;6314031;22;19939;-79
2024/03/20 04:56:35;;;;;;;;;;;;;;;7.60;91.95;101282.88;6314466;22;20275;-81
2024/03/20 04:59:02;;;;;;;;;;;;;;;7.63;91.96;101287.09;6313187;22;19982;-79
2024/03/20 05:01:28;;;;;;;;;;;;;;;7.63;92.32;101287.09;6314574;22;19923;-80
2024/03/20 05:03:57;;;;;;;;;;;;;;;7.64;92.39;101290.59;6313631;22;20055;-79
2024/03/20 05:06:24;;;;;;;;;;;;;;;7.72;92.19;101283.88;6315444;22;19943;-80
2024/03/20 05:08:50;;;;;;;;;;;;;;;7.71;91.92;101289.25;6315118;22;19919;-78
2024/03/20 05:11:17;;;;;;;;;;;;;;;7.60;92.58;101287.31;6314453;22;19923;-78
2024/03/20 05:13:44;;;;;;;;;;;;;;;7.57;92.76;101284.88;6310776;22;19930;-79
2024/03/20 05:16:11;;;;;;;;;;;;;;;7.52;93.23;101285.16;6311175;22;19957;-81
2024/03/20 05:18:37;;;;;;;;;;;;;;;7.53;93.99;101293.91;6312913;22;19946;-80
2024/03/20 05:21:04;;;;;;;;;;;;;;;7.63;93.25;101286.25;6312867;22;19923;-79
2024/03/20 05:23:29;;;;;;;;;;;;;;;7.66;92.71;101288.69;6311963;22;19919;-79
2024/03/20 05:25:56;;;;;;;;;;;;;;;7.58;93.54;101290.03;6313038;22;19926;-80
2024/03/20 05:28:21;;;;;;;;;;;;;;;7.60;93.78;101295.22;6315019;22;19955;-80
2024/03/20 05:30:50;;;;;;;;;;;;;;;7.52;94.10;101290.44;6314803;22;19919;-80
2024/03/20 05:33:16;;;;;;;;;;;;;;;7.53;94.13;101294.75;6321397;22;19992;-80
2024/03/20 05:35:42;;;;;;;;;;;;;;;7.53;94.58;101297.38;6314862;22;19922;-81
2024/03/20 05:38:08;;;;;;;;;;;;;;;7.61;93.73;101296.91;6321131;22;19919;-80
2024/03/20 05:40:35;;;;;;;;;;;;;;;7.65;94.32;101297.56;6320569;22;19926;-82
2024/03/20 05:43:04;;;;;;;;;;;;;;;7.71;93.68;101291.88;6322372;22;19919;-79
2024/03/20 05:45:31;;;;;;;;;;;;;;;7.76;93.85;101300.31;6321749;22;19961;-82
2024/03/20 05:47:57;;;;;;;;;;;;;;;7.81;93.01;101298.22;6320158;22;19930;-81
2024/03/20 05:50:24;;;;;;;;;;;;;;;7.82;92.89;101303.44;6320213;22;19923;-82
2024/03/20 05:52:49;;;;;;;;;;;;;;;7.84;92.87;101306.78;6319416;22;19919;-80
2024/03/20 05:55:16;;;;;;;;;;;;;;;7.94;92.93;101304.41;6320127;22;19949;-83
2024/03/20 05:57:41;;;;;;;;;;;;;;;7.98;92.57;101308.53;6316169;22;19954;-79
2024/03/20 06:00:14;;;;;;;;;;;;;;;8.05;92.27;101307.19;6322506;22;19926;-80
2024/03/20 06:02:40;;;;;;;;;;;;;;;8.08;92.29;101307.00;6323155;22;19926;-81
2024/03/20 06:05:08;;;;;;;;;;;;;;;8.15;92.05;101309.22;6322965;22;19919;-81
2024/03/20 06:07:35;;;;;;;;;;;;;;;8.23;91.23;101310.38;6322889;22;19919;-83
2024/03/20 06:10:03;;;;;;;;;;;;;;;8.25;91.18;101305.00;6321007;22;19987;-82
2024/03/20 06:12:29;;;;;;;;;;;;;;;8.30;91.09;101308.19;6322791;22;19925;-79
2024/03/20 06:14:55;;;;;;;;;;;;;;;8.38;89.75;101302.44;6323624;22;19929;-81
2024/03/20 06:17:21;;;;;;;;;;;;;;;8.54;89.14;101309.22;6324901;22;19919;-78
2024/03/20 06:19:47;;;;;;;;;;;;;;;8.50;89.51;101309.53;6320372;22;19919;-81
2024/03/20 06:22:15;;;;;;;;;;;;;;;8.53;89.86;101314.59;6315743;22;20006;-81
2024/03/20 06:24:40;;;;;;;;;;;;;;;8.57;89.63;101313.41;6313659;22;19992;-81
2024/03/20 06:27:07;;;;;;;;;;;;;;;8.78;88.25;101314.59;6314024;22;19922;-80
2024/03/20 06:29:32;;;;;;;;;;;;;;;8.81;88.53;101319.66;6318009;22;19923;-81
2024/03/20 06:31:59;;;;;;;;;;;;;;;9.00;87.34;101315.75;6328029;22;19919;-79
2024/03/20 06:34:24;;;;;;;;;;;;;;;9.00;87.48;101316.59;6320261;22;19994;-78
2024/03/20 06:36:51;;;;;;;;;;;;;;;9.23;87.32;101328.16;6315114;22;19919;-80
2024/03/20 06:39:18;;;;;;;;;;;;;;;9.47;86.29;101325.59;6315514;22;20311;-79
2024/03/20 06:41:45;;;;;;;;;;;;;;;9.62;85.34;101327.13;6317281;22;19919;-80
2024/03/20 06:44:14;;;;;;;;;;;;;;;9.80;84.24;101327.59;6315418;22;19977;-79
2024/03/20 06:46:40;;;;;;;;;;;;;;;10.02;83.40;101331.31;6314537;22;19957;-80
2024/03/20 06:49:09;;;;;;;;;;;;;;;10.11;82.60;101331.47;6316104;22;19918;-79
2024/03/20 06:51:36;;;;;;;;;;;;;;;10.29;81.63;101337.22;6313050;22;20344;-79
2024/03/20 06:54:09;;;;;;;;;;;;;;;10.24;82.14;101334.06;6312725;22;19968;-79
2024/03/20 06:56:36;;;;;;;;;;;;;;;10.39;81.67;101340.00;6311769;22;20273;-79
2024/03/20 06:59:02;;;;;;;;;;;;;;;10.63;81.22;101343.47;6310899;22;19961;-79
2024/03/20 07:01:28;;;;;;;;;;;;;;;10.82;79.80;101348.19;6310934;22;19929;-78
2024/03/20 07:03:55;;;;;;;;;;;;;;;10.79;80.25;101347.56;6310618;22;19985;-79
2024/03/20 07:06:20;;;;;;;;;;;;;;;10.83;80.09;101344.56;6312009;22;19958;-78
2024/03/20 07:08:47;;;;;;;;;;;;;;;10.88;80.17;101342.41;6311481;22;20274;-79
2024/03/20 07:11:12;;;;;;;;;;;;;;;11.08;79.15;101343.53;6309233;22;19927;-78
2024/03/20 07:13:40;;;;;;;;;;;;;;;11.29;78.49;101340.97;6309584;22;20335;-79
2024/03/20 07:16:06;;;;;;;;;;;;;;;11.33;79.21;101342.41;6312166;22;20287;-78
2024/03/20 07:18:33;;;;;;;;;;;;;;;11.58;77.88;101338.66;6313010;22;19992;-79
2024/03/20 07:20:58;;;;;;;;;;;;;;;11.73;76.48;101333.09;6309680;22;20366;-79
2024/03/20 07:23:25;;;;;;;;;;;;;;;11.78;76.92;101341.50;6309976;22;19919;-79
2024/03/20 07:25:50;;;;;;;;;;;;;;;11.68;77.92;101343.22;6310762;22;19994;-78
2024/03/20 07:28:18;;;;;;;;;;;;;;;11.94;76.30;101339.34;6310507;22;19930;-79
2024/03/20 07:30:44;;;;;;;;;;;;;;;11.76;77.21;101341.63;6310729;22;19923;-78
2024/03/20 07:33:11;;;;;;;;;;;;;;;11.83;76.92;101347.31;6309286;22;20262;-79
2024/03/20 07:35:42;;;;;;;;;;;;;;;11.98;75.92;101346.06;6310047;22;19954;-79
2024/03/20 07:38:09;;;;;;;;;;;;;;;12.28;74.95;101339.22;6309809;22;19919;-80
2024/03/20 07:40:35;;;;;;;;;;;;;;;12.35;74.46;101341.22;6310466;22;19919;-79
2024/03/20 07:43:01;;;;;;;;;;;;;;;12.30;74.78;101350.53;6310765;22;19949;-77
2024/03/20 07:45:27;;;;;;;;;;;;;;;12.03;76.27;101345.69;6310332;22;19919;-79
2024/03/20 07:47:55;;;;;;;;;;;;;;;12.26;75.49;101338.47;6310488;22;19930;-79
2024/03/20 07:50:20;;;;;;;;;;;;;;;12.50;74.49;101336.44;6310101;22;19918;-79
2024/03/20 07:52:47;;;;;;;;;;;;;;;12.75;73.35;101342.31;6310574;22;19961;-78
2024/03/20 07:55:13;;;;;;;;;;;;;;;13.11;71.77;101341.81;6310253;22;20064;-78
2024/03/20 08:00:08;;;;;;;;;;;;;;;12.86;72.39;101347.56;6255032;23;20033;-81
2024/03/20 08:02:36;;;;;;;;;;;;;;;13.21;71.31;101341.00;6255435;23;19920;-80
2024/03/20 08:05:06;;;;;;;;;;;;;;;13.74;69.14;101352.25;6254765;23;20399;-79
2024/03/20 08:07:32;;;;;;;;;;;;;;;13.25;70.21;101359.25;6259724;22;19919;-79
2024/03/20 08:10:00;;;;;;;;;;;;;;;13.51;69.84;101356.97;6261955;23;19919;-80
2024/03/20 08:12:26;;;;;;;;;;;;;;;13.41;70.53;101356.09;6262451;23;19908;-81
2024/03/20 08:14:53;;;;;;;;;;;;;;;13.82;69.92;101355.06;6261638;23;19927;-81
2024/03/20 08:17:18;;;;;;;;;;;;;;;14.20;68.27;101353.44;6253092;22;19923;-81
2024/03/20 08:19:46;;;;;;;;;;;;;;;14.05;68.37;101365.47;6254365;23;20224;-83
2024/03/20 08:22:12;;;;;;;;;;;;;;;13.72;67.78;101364.03;6252345;23;19923;-81
2024/03/20 08:24:43;;;;;;;;;;;;;;;13.90;67.98;101363.22;6254958;23;19969;-82
2024/03/20 08:27:08;;;;;;;;;;;;;;;14.14;67.15;101362.81;6252940;22;19923;-82
2024/03/20 08:29:35;;;;;;;;;;;;;;;14.37;66.54;101365.19;6251615;23;19920;-83
2024/03/20 08:32:00;;;;;;;;;;;;;;;14.40;65.28;101370.25;6252644;23;19923;-81
2024/03/20 08:34:27;;;;;;;;;;;;;;;13.79;68.16;101371.31;6253090;23;19970;-83
2024/03/20 08:36:52;;;;;;;;;;;;;;;13.97;67.18;101367.97;6251964;22;19919;-80
2024/03/20 08:39:20;;;;;;;;;;;;;;;14.41;66.04;101364.78;6252636;23;19930;-81
2024/03/20 08:41:46;;;;;;;;;;;;;;;13.80;67.88;101362.38;6251960;23;19927;-84
2024/03/20 08:44:13;;;;;;;;;;;;;;;14.34;67.13;101354.84;6253627;23;19990;-83
2024/03/20 08:46:41;;;;;;;;;;;;;;;14.62;65.19;101362.00;6253133;22;20260;-83
2024/03/20 08:49:08;;;;;;;;;;;;;;;14.84;64.87;101370.66;6253391;23;19919;-82
2024/03/20 08:51:34;;;;;;;;;;;;;;;14.98;65.26;101372.84;6252807;23;19919;-83
2024/03/20 08:54:02;;;;;;;;;;;;;;;14.78;63.82;101371.25;6253522;23;19950;-80
2024/03/20 08:56:29;;;;;;;;;;;;;;;15.33;64.25;101371.34;6252953;22;19969;-82
2024/03/20 08:58:56;;;;;;;;;;;;;;;15.45;61.69;101372.84;6268368;22;19926;-83
2024/03/20 09:01:22;;;;;;;;;;;;;;;15.33;62.43;101379.34;6282539;22;19919;-82
2024/03/20 09:03:48;;;;;;;;;;;;;;;15.74;60.64;101366.53;6284533;22;19941;-81
2024/03/20 09:06:14;;;;;;;;;;;;;;;15.46;61.31;101365.66;6283415;22;19986;-82
2024/03/20 09:08:42;;;;;;;;;;;;;;;15.98;59.83;101366.78;6283490;22;19974;-83
2024/03/20 09:11:07;;;;;;;;;;;;;;;15.90;59.48;101372.06;6283972;22;19957;-82
2024/03/20 09:13:35;;;;;;;;;;;;;;;15.97;58.70;101372.28;6284415;22;19919;-82
2024/03/20 09:16:00;;;;;;;;;;;;;;;15.92;57.43;101364.72;6282644;22;19923;-82
2024/03/20 09:18:27;;;;;;;;;;;;;;;15.93;57.30;101372.56;6283341;22;19941;-82
2024/03/20 09:20:52;;;;;;;;;;;;;;;16.02;57.83;101365.47;6283251;22;20051;-83
2024/03/20 09:23:21;;;;;;;;;;;;;;;16.28;58.82;101362.91;6283308;22;19919;-80
2024/03/20 09:25:47;;;;;;;;;;;;;;;16.16;58.15;101361.44;6282191;22;19926;-83
2024/03/20 09:28:13;;;;;;;;;;;;;;;16.41;56.46;101362.50;6282275;22;19938;-82
2024/03/20 09:30:40;;;;;;;;;;;;;;;16.22;56.24;101362.69;6281882;22;19954;-79
2024/03/20 09:33:07;;;;;;;;;;;;;;;15.48;58.12;101372.53;6281899;22;19923;-81
2024/03/20 09:35:32;;;;;;;;;;;;;;;15.94;58.34;101362.75;6281368;22;19942;-82
2024/03/20 09:37:59;;;;;;;;;;;;;;;16.23;58.72;101364.34;6282563;22;19931;-81
2024/03/20 09:40:26;;;;;;;;;;;;;;;16.33;57.70;101357.09;6283914;22;19952;-82
2024/03/20 09:42:53;;;;;;;;;;;;;;;16.26;56.96;101364.06;6284202;22;19993;-80
2024/03/20 09:45:20;;;;;;;;;;;;;;;15.88;57.30;101363.34;6283213;22;20346;-82
2024/03/20 09:47:49;;;;;;;;;;;;;;;15.56;59.17;101375.28;6284568;22;19919;-81
2024/03/20 09:50:15;;;;;;;;;;;;;;;15.48;59.87;101363.69;6285007;22;19919;-82
2024/03/20 09:52:41;;;;;;;;;;;;;;;15.52;59.40;101360.56;6284935;22;19930;-81
2024/03/20 09:55:07;;;;;;;;;;;;;;;15.87;59.83;101359.00;6284592;22;20193;-82
2024/03/20 09:57:33;;;;;;;;;;;;;;;16.08;57.35;101350.72;6284690;22;19920;-82
2024/03/20 10:00:00;;;;;;;;;;;;;;;16.08;57.40;101348.03;6284582;22;19949;-79
2024/03/20 10:02:26;;;;;;;;;;;;;;;15.88;58.36;101347.31;6285737;22;20348;-82
2024/03/20 10:04:57;;;;;;;;;;;;;;;15.98;57.25;101348.09;6284501;22;19919;-83
2024/03/20 10:07:22;;;;;;;;;;;;;;;16.50;57.47;101339.38;6285396;22;19927;-80
2024/03/20 10:09:49;;;;;;;;;;;;;;;16.38;55.87;101336.94;6287408;22;19919;-82
2024/03/20 10:12:15;;;;;;;;;;;;;;;16.81;55.86;101335.28;6293775;22;19907;-82
2024/03/20 10:14:42;;;;;;;;;;;;;;;16.99;56.23;101343.25;6295454;22;19991;-82
2024/03/20 10:17:11;;;;;;;;;;;;;;;16.60;54.90;101338.28;6295390;22;19942;-82
2024/03/20 10:19:38;;;;;;;;;;;;;;;16.99;54.08;101332.53;6287778;22;19927;-82
2024/03/20 10:22:05;;;;;;;;;;;;;;;17.02;53.56;101337.59;6283487;22;19943;-82
2024/03/20 10:24:32;;;;;;;;;;;;;;;17.09;54.18;101333.25;6284026;22;20240;-83
2024/03/20 10:26:57;;;;;;;;;;;;;;;17.31;53.84;101331.03;6284523;22;19949;-82
2024/03/20 10:29:25;;;;;;;;;;;;;;;17.05;53.52;101334.56;6285525;22;19919;-82
2024/03/20 10:31:53;;;;;;;;;;;;;;;16.83;52.64;101333.31;6290446;22;19928;-82
2024/03/20 10:34:21;;;;;;;;;;;;;;;17.11;52.72;101331.28;6298190;22;19930;-82
2024/03/20 10:36:48;;;;;;;;;;;;;;;17.72;53.42;101328.47;6293765;22;19919;-82
2024/03/20 10:39:17;;;;;;;;;;;;;;;17.88;51.24;101328.56;6288630;22;19944;-82
2024/03/20 10:41:44;;;;;;;;;;;;;;;17.56;51.46;101327.44;6285079;22;19954;-83
2024/03/20 10:44:14;;;;;;;;;;;;;;;17.64;51.76;101324.81;6284383;22;19927;-79
2024/03/20 10:46:43;;;;;;;;;;;;;;;17.84;51.16;101328.03;6284695;22;20339;-81
2024/03/20 10:49:11;;;;;;;;;;;;;;;18.02;50.94;101327.91;6285936;22;20284;-79
2024/03/20 10:51:36;;;;;;;;;;;;;;;17.87;49.95;101330.41;6284953;22;19919;-83
2024/03/20 10:54:03;;;;;;;;;;;;;;;17.74;50.61;101322.00;6284867;22;20010;-84
2024/03/20 10:56:30;;;;;;;;;;;;;;;17.57;51.28;101321.09;6284919;22;20061;-84
2024/03/20 10:59:00;;;;;;;;;;;;;;;17.54;51.55;101320.56;6285011;22;19926;-83
2024/03/20 11:01:26;;;;;;;;;;;;;;;17.61;50.48;101317.09;6283379;22;19947;-83
2024/03/20 11:03:56;;;;;;;;;;;;;;;17.51;50.65;101324.44;6284434;22;19930;-83
2024/03/20 11:06:40;;;;;;;;;;;;;;;17.74;50.40;101311.28;6284322;22;19919;-83
2024/03/20 11:09:30;;;;;;;;;;;;;;;18.05;48.81;101302.63;6283412;22;19919;-83
2024/03/20 11:11:57;;;;;;;;;;;;;;;17.80;50.52;101309.78;6275503;22;19923;-82
2024/03/20 11:14:33;;;;;;;;;;;;;;;18.09;49.86;101304.81;6283466;22;20388;-82
2024/03/20 11:17:02;;;;;;;;;;;;;;;17.97;49.98;101299.94;6284643;22;19920;-83
2024/03/20 11:19:29;;;;;;;;;;;;;;;18.04;48.00;101301.81;6286050;22;19920;-83
2024/03/20 11:21:58;;;;;;;;;;;;;;;18.24;47.81;101296.09;6285365;22;20263;-81
2024/03/20 11:24:24;;;;;;;;;;;;;;;18.44;48.73;101300.13;6286801;22;20374;-83
2024/03/20 11:26:50;;;;;;;;;;;;;;;18.41;48.10;101298.59;6294985;22;19919;-82
2024/03/20 11:29:18;;;;;;;;;;;;;;;18.74;46.98;101300.44;6296045;22;19920;-83
2024/03/20 11:31:45;;;;;;;;;;;;;;;18.43;48.66;101301.09;6289208;22;19985;-82
2024/03/20 11:34:10;;;;;;;;;;;;;;;18.28;47.97;101302.81;6283370;22;19930;-81
2024/03/20 11:36:37;;;;;;;;;;;;;;;18.62;47.25;101299.94;6282001;22;19919;-81
2024/03/20 11:39:07;;;;;;;;;;;;;;;18.44;46.96;101292.09;6285595;22;19919;-81
2024/03/20 11:41:34;;;;;;;;;;;;;;;18.83;46.58;101291.34;6286952;22;19929;-82
2024/03/20 11:44:00;;;;;;;;;;;;;;;19.12;45.67;101293.44;6293030;22;19923;-82
2024/03/20 11:46:28;;;;;;;;;;;;;;;19.07;44.72;101288.59;6295753;22;19931;-81
2024/03/20 11:48:55;;;;;;;;;;;;;;;19.07;45.54;101287.78;6297667;22;19919;-83
2024/03/20 11:51:23;;;;;;;;;;;;;;;19.23;45.83;101284.16;6294422;22;20247;-81
2024/03/20 11:53:49;;;;;;;;;;;;;;;19.19;44.00;101281.81;6285300;22;19919;-82
2024/03/20 11:56:16;;;;;;;;;;;;;;;19.14;44.80;101284.19;6284475;22;19934;-81
2024/03/20 11:58:41;;;;;;;;;;;;;;;19.22;43.91;101288.69;6283835;22;20360;-81
2024/03/20 12:01:08;;;;;;;;;;;;;;;18.67;44.50;101286.84;6283853;22;19926;-81
2024/03/20 12:03:36;;;;;;;;;;;;;;;18.82;44.22;101284.31;6283866;22;19923;-82
2024/03/20 12:06:09;;;;;;;;;;;;;;;19.08;45.06;101284.91;6284329;22;19919;-81
2024/03/20 12:08:34;;;;;;;;;;;;;;;19.05;45.18;101276.34;6284060;22;19942;-81
2024/03/20 12:11:13;;;;;;;;;;;;;;;19.36;45.14;101268.34;6286091;22;19919;-81
2024/03/20 12:13:38;;;;;;;;;;;;;;;18.91;44.88;101275.25;6290035;22;19919;-81
2024/03/20 12:16:05;;;;;;;;;;;;;;;18.80;44.34;101270.25;6294598;22;20350;-81
2024/03/20 12:18:31;;;;;;;;;;;;;;;18.81;44.39;101266.56;6295319;22;19923;-81
2024/03/20 12:20:58;;;;;;;;;;;;;;;19.19;44.07;101270.25;6292548;22;19968;-82
2024/03/20 12:23:24;;;;;;;;;;;;;;;19.52;43.20;101259.38;6287383;22;19924;-81
2024/03/20 12:25:50;;;;;;;;;;;;;;;19.67;42.72;101263.81;6284480;22;20004;-81
2024/03/20 12:28:16;;;;;;;;;;;;;;;19.45;44.17;101254.69;6284101;22;20001;-81
2024/03/20 12:30:43;;;;;;;;;;;;;;;19.49;43.35;101255.16;6283726;22;19927;-81
2024/03/20 12:33:10;;;;;;;;;;;;;;;19.37;42.24;101261.94;6283685;22;20316;-81
2024/03/20 12:35:35;;;;;;;;;;;;;;;19.48;41.88;101258.88;6284604;22;19919;-81
2024/03/20 12:38:03;;;;;;;;;;;;;;;19.79;42.19;101253.50;6284097;22;19923;-82
2024/03/20 12:40:29;;;;;;;;;;;;;;;19.86;40.61;101245.53;6284950;22;19930;-82
2024/03/20 12:42:55;;;;;;;;;;;;;;;19.73;40.19;101248.00;6284941;22;19919;-80
2024/03/20 12:45:22;;;;;;;;;;;;;;;19.67;41.16;101245.00;6285144;22;19977;-80
2024/03/20 12:47:48;;;;;;;;;;;;;;;19.55;42.09;101245.56;6285027;22;19923;-81
2024/03/20 12:50:14;;;;;;;;;;;;;;;19.69;41.33;101245.69;6283904;22;19930;-82
2024/03/20 12:52:41;;;;;;;;;;;;;;;19.62;42.19;101246.56;6281245;22;20002;-81
2024/03/20 12:55:08;;;;;;;;;;;;;;;19.61;41.50;101244.91;6280623;22;19919;-81
2024/03/20 12:57:35;;;;;;;;;;;;;;;19.71;41.27;101237.44;6281414;22;19984;-81
2024/03/20 13:00:03;;;;;;;;;;;;;;;19.51;41.79;101239.75;6282135;22;19981;-81
2024/03/20 13:02:31;;;;;;;;;;;;;;;19.75;41.42;101229.88;6281488;22;20036;-81
2024/03/20 13:04:56;;;;;;;;;;;;;;;19.66;41.36;101237.16;6284579;22;19934;-79
2024/03/20 13:07:22;;;;;;;;;;;;;;;19.72;41.76;101232.91;6285334;22;19923;-80
2024/03/20 13:09:50;;;;;;;;;;;;;;;19.93;42.27;101230.38;6283487;22;19926;-82
2024/03/20 13:12:18;;;;;;;;;;;;;;;19.59;40.62;101236.97;6283088;22;19994;-81
2024/03/20 13:14:43;;;;;;;;;;;;;;;19.74;39.51;101231.72;6282986;22;19942;-82
2024/03/20 13:17:14;;;;;;;;;;;;;;;19.77;42.14;101230.50;6283352;22;19923;-80